createdAt,value
2017-08-28T00:01:08.042Z,99.90
2017-08-28T00:03:34.488Z,99.90
2017-08-28T00:06:00.858Z,99.90
2017-08-28T00:08:27.267Z,99.90
2017-08-28T00:10:53.675Z,99.90
2017-08-28T00:13:20.163Z,99.90
2017-08-28T00:15:46.543Z,99.90
2017-08-28T00:18:13.035Z,99.90
2017-08-28T00:20:39.413Z,99.80
2017-08-28T00:23:05.871Z,99.90
2017-08-28T00:25:32.275Z,99.50
2017-08-28T00:27:58.656Z,99.60
2017-08-28T00:30:25.056Z,99.30
2017-08-28T00:32:51.539Z,99.70
2017-08-28T00:35:17.943Z,99.80
2017-08-28T00:37:44.423Z,99.90
2017-08-28T00:40:17.818Z,99.50
2017-08-28T00:42:44.231Z,99.90
2017-08-28T00:45:10.652Z,99.90
2017-08-28T00:47:37.056Z,99.80
2017-08-28T00:50:03.499Z,99.90
2017-08-28T00:52:29.987Z,99.90
2017-08-28T00:54:56.371Z,99.90
2017-08-28T00:57:22.787Z,99.90
2017-08-28T00:59:49.207Z,99.90
2017-08-28T01:02:15.671Z,99.90
2017-08-28T01:04:42.051Z,99.90
2017-08-28T01:07:08.479Z,99.90
2017-08-28T01:09:34.875Z,99.90
2017-08-28T01:12:01.258Z,99.90
2017-08-28T01:14:27.635Z,99.90
2017-08-28T01:16:54.004Z,99.90
2017-08-28T01:19:20.430Z,99.90
2017-08-28T01:21:46.860Z,99.90
2017-08-28T01:24:13.274Z,99.90
2017-08-28T01:26:39.682Z,99.70
2017-08-28T01:29:06.071Z,99.80
2017-08-28T01:31:32.456Z,99.90
2017-08-28T01:33:58.924Z,99.90
2017-08-28T01:36:25.327Z,99.90
2017-08-28T01:38:51.794Z,99.90
2017-08-28T01:41:18.194Z,99.90
2017-08-28T01:43:44.656Z,99.90
2017-08-28T01:46:11.032Z,99.90
2017-08-28T01:48:37.426Z,99.90
2017-08-28T01:51:03.815Z,99.90
2017-08-28T01:53:30.259Z,99.90
2017-08-28T01:55:56.663Z,99.90
2017-08-28T01:58:23.074Z,99.90
2017-08-28T02:00:49.478Z,99.90
2017-08-28T02:03:15.879Z,99.90
2017-08-28T02:05:42.283Z,99.90
2017-08-28T02:08:08.666Z,99.90
2017-08-28T02:10:35.090Z,99.90
2017-08-28T02:13:01.527Z,99.90
2017-08-28T02:15:27.939Z,99.90
2017-08-28T02:17:54.320Z,99.80
2017-08-28T02:20:20.722Z,99.90
2017-08-28T02:22:47.170Z,99.90
2017-08-28T02:25:13.555Z,99.90
2017-08-28T02:27:39.963Z,99.90
2017-08-28T02:30:06.369Z,99.90
2017-08-28T02:32:32.763Z,99.90
2017-08-28T02:34:59.141Z,99.90
2017-08-28T02:37:25.539Z,99.90
2017-08-28T02:39:51.952Z,99.90
2017-08-28T02:42:18.450Z,99.90
2017-08-28T02:44:44.839Z,99.90
2017-08-28T02:47:11.211Z,99.70
2017-08-28T02:49:37.628Z,99.90
2017-08-28T02:52:04.042Z,99.90
2017-08-28T02:54:30.417Z,99.80
2017-08-28T02:56:56.820Z,99.60
2017-08-28T02:59:23.180Z,99.70
2017-08-28T03:01:49.607Z,99.30
2017-08-28T03:04:16.018Z,99.50
2017-08-28T03:06:42.403Z,99.60
2017-08-28T03:09:08.795Z,99.60
2017-08-28T03:11:35.171Z,99.40
2017-08-28T03:14:01.650Z,99.30
2017-08-28T03:16:28.031Z,99.20
2017-08-28T03:18:54.416Z,99.20
2017-08-28T03:21:20.839Z,99.40
2017-08-28T03:23:47.253Z,99.40
2017-08-28T03:26:13.623Z,99.70
2017-08-28T03:28:40.023Z,99.10
2017-08-28T03:31:06.411Z,99.10
2017-08-28T03:33:32.919Z,99.10
2017-08-28T03:35:59.319Z,98.70
2017-08-28T03:38:25.783Z,98.80
2017-08-28T03:40:52.194Z,98.70
2017-08-28T03:43:18.668Z,98.60
2017-08-28T03:45:45.208Z,99.00
2017-08-28T03:48:11.611Z,98.80
2017-08-28T03:50:38.027Z,98.70
2017-08-28T03:53:04.506Z,98.50
2017-08-28T03:55:30.916Z,98.60
2017-08-28T03:57:57.335Z,98.60
2017-08-28T04:00:23.758Z,98.70
2017-08-28T04:02:50.231Z,98.50
2017-08-28T04:05:16.671Z,98.50
2017-08-28T04:07:43.091Z,98.70
2017-08-28T04:10:09.475Z,99.10
2017-08-28T04:12:35.944Z,99.00
2017-08-28T04:15:02.350Z,99.00
2017-08-28T04:17:28.744Z,98.80
2017-08-28T04:19:55.124Z,98.60
2017-08-28T04:22:21.582Z,98.80
2017-08-28T04:24:47.976Z,98.60
2017-08-28T04:27:14.355Z,98.80
2017-08-28T04:29:40.754Z,98.70
2017-08-28T04:32:07.212Z,98.90
2017-08-28T04:34:33.603Z,98.80
2017-08-28T04:36:59.972Z,98.80
2017-08-28T04:39:26.351Z,98.60
2017-08-28T04:41:52.796Z,98.60
2017-08-28T04:44:19.180Z,98.90
2017-08-28T04:46:45.579Z,99.00
2017-08-28T04:49:11.938Z,99.00
2017-08-28T04:51:38.370Z,98.80
2017-08-28T04:54:05.892Z,98.70
2017-08-28T04:56:32.272Z,98.60
2017-08-28T04:58:58.667Z,98.80
2017-08-28T05:01:25.047Z,99.20
2017-08-28T05:03:51.535Z,98.90
2017-08-28T05:06:17.928Z,99.20
2017-08-28T05:08:44.334Z,99.50
2017-08-28T05:11:10.716Z,99.60
2017-08-28T05:13:37.167Z,99.40
2017-08-28T05:16:03.544Z,99.20
2017-08-28T05:18:29.919Z,99.50
2017-08-28T05:20:56.443Z,99.30
2017-08-28T05:23:22.888Z,99.40
2017-08-28T05:25:49.364Z,99.50
2017-08-28T05:28:15.800Z,99.20
2017-08-28T05:30:42.220Z,99.20
2017-08-28T05:33:08.731Z,99.10
2017-08-28T05:35:35.127Z,98.90
2017-08-28T05:38:01.502Z,99.00
2017-08-28T05:40:27.932Z,99.20
2017-08-28T05:42:54.338Z,99.10
2017-08-28T05:45:20.727Z,99.30
2017-08-28T05:47:47.134Z,99.00
2017-08-28T05:50:13.544Z,99.10
2017-08-28T05:52:39.987Z,99.10
2017-08-28T05:55:06.400Z,98.80
2017-08-28T05:57:32.891Z,98.90
2017-08-28T05:59:59.479Z,99.10
2017-08-28T06:02:27.019Z,99.30
2017-08-28T06:04:53.456Z,99.90
2017-08-28T06:07:19.926Z,99.10
2017-08-28T06:09:46.335Z,99.90
2017-08-28T06:12:12.767Z,99.90
2017-08-28T06:14:39.143Z,99.90
2017-08-28T06:17:05.537Z,99.70
2017-08-28T06:19:31.907Z,99.00
2017-08-28T06:21:58.330Z,99.10
2017-08-28T06:24:24.698Z,99.10
2017-08-28T06:26:51.083Z,98.80
2017-08-28T06:29:17.495Z,99.10
2017-08-28T06:31:43.918Z,99.40
2017-08-28T06:34:10.418Z,99.00
2017-08-28T06:36:36.795Z,98.20
2017-08-28T06:39:03.279Z,98.40
2017-08-28T06:41:29.692Z,97.80
2017-08-28T06:43:56.112Z,97.30
2017-08-28T06:46:22.504Z,97.00
2017-08-28T06:48:48.952Z,95.60
2017-08-28T06:51:15.335Z,94.70
2017-08-28T06:53:41.775Z,95.00
2017-08-28T06:56:08.206Z,94.20
2017-08-28T06:58:34.591Z,95.70
2017-08-28T07:01:01.008Z,96.10
2017-08-28T07:03:27.387Z,96.40
2017-08-28T07:05:53.759Z,97.30
2017-08-28T07:08:20.167Z,96.90
2017-08-28T07:10:46.597Z,96.20
2017-08-28T07:13:13.017Z,95.60
2017-08-28T07:15:39.439Z,95.60
2017-08-28T07:18:05.816Z,95.90
2017-08-28T07:20:32.219Z,95.30
2017-08-28T07:22:58.612Z,95.60
2017-08-28T07:25:25.009Z,95.00
2017-08-28T07:27:51.431Z,94.20
2017-08-28T07:30:17.844Z,93.80
2017-08-28T07:32:44.280Z,92.90
2017-08-28T07:35:10.679Z,91.40
2017-08-28T07:37:37.082Z,90.20
2017-08-28T07:40:03.518Z,91.50
2017-08-28T07:42:29.936Z,93.00
2017-08-28T07:44:56.341Z,90.80
2017-08-28T07:47:22.731Z,90.70
2017-08-28T07:49:50.167Z,90.90
2017-08-28T07:52:16.568Z,89.50
2017-08-28T07:54:42.971Z,91.40
2017-08-28T07:57:09.352Z,88.50
2017-08-28T07:59:35.747Z,89.00
2017-08-28T08:02:02.152Z,85.70
2017-08-28T08:04:28.564Z,82.70
2017-08-28T08:06:54.981Z,80.90
2017-08-28T08:09:21.364Z,81.60
2017-08-28T08:11:47.772Z,84.50
2017-08-28T08:14:14.188Z,81.40
2017-08-28T08:16:41.323Z,79.60
2017-08-28T08:19:07.755Z,79.50
2017-08-28T08:21:34.192Z,79.70
2017-08-28T08:24:00.621Z,77.40
2017-08-28T08:26:27.083Z,79.30
2017-08-28T08:28:53.548Z,77.50
2017-08-28T08:31:20.063Z,78.80
2017-08-28T08:33:52.472Z,77.30
2017-08-28T08:36:18.866Z,78.30
2017-08-28T08:38:45.304Z,78.70
2017-08-28T08:41:11.738Z,78.50
2017-08-28T08:43:38.195Z,75.90
2017-08-28T08:46:05.220Z,77.90
2017-08-28T08:48:31.658Z,76.50
2017-08-28T08:50:58.035Z,80.40
2017-08-28T08:53:24.490Z,79.10
2017-08-28T08:55:50.903Z,78.80
2017-08-28T08:58:17.312Z,80.90
2017-08-28T09:00:43.731Z,80.30
2017-08-28T09:03:10.151Z,78.90
2017-08-28T09:05:36.528Z,77.40
2017-08-28T09:08:02.948Z,76.70
2017-08-28T09:10:29.344Z,73.90
2017-08-28T09:12:55.736Z,76.00
2017-08-28T09:15:22.148Z,75.60
2017-08-28T09:17:48.596Z,79.80
2017-08-28T09:20:15.038Z,78.40
2017-08-28T09:22:41.458Z,78.90
2017-08-28T09:25:07.882Z,82.50
2017-08-28T09:27:34.307Z,74.70
2017-08-28T09:30:00.768Z,74.30
2017-08-28T09:32:27.193Z,73.80
2017-08-28T09:34:53.602Z,75.20
2017-08-28T09:37:19.984Z,74.10
2017-08-28T09:39:46.403Z,72.30
2017-08-28T09:42:12.848Z,73.80
2017-08-28T09:44:39.240Z,71.10
2017-08-28T09:47:05.693Z,71.60
2017-08-28T09:49:32.092Z,70.50
2017-08-28T09:51:59.384Z,72.90
2017-08-28T09:54:25.830Z,71.20
2017-08-28T09:56:52.228Z,70.30
2017-08-28T09:59:18.628Z,69.80
2017-08-28T10:01:45.027Z,72.30
2017-08-28T10:04:11.602Z,72.10
2017-08-28T10:06:37.999Z,70.40
2017-08-28T10:09:04.380Z,67.50
2017-08-28T10:11:30.795Z,67.80
2017-08-28T10:13:57.218Z,67.30
2017-08-28T10:16:23.617Z,69.60
2017-08-28T10:18:50.011Z,71.60
2017-08-28T10:21:16.416Z,70.80
2017-08-28T10:23:42.818Z,67.40
2017-08-28T10:26:09.259Z,68.10
2017-08-28T10:28:35.647Z,70.10
2017-08-28T10:31:02.035Z,66.30
2017-08-28T10:33:28.452Z,67.00
2017-08-28T10:35:54.863Z,67.00
2017-08-28T10:38:21.288Z,66.30
2017-08-28T10:40:47.672Z,66.30
2017-08-28T10:43:14.091Z,63.50
2017-08-28T10:45:40.512Z,64.60
2017-08-28T10:48:06.912Z,65.60
2017-08-28T10:50:33.328Z,66.30
2017-08-28T10:53:05.748Z,67.80
2017-08-28T10:55:32.118Z,67.80
2017-08-28T10:57:58.572Z,70.50
2017-08-28T11:00:25.004Z,68.90
2017-08-28T11:02:51.427Z,67.20
2017-08-28T11:05:17.840Z,68.50
2017-08-28T11:07:44.227Z,68.70
2017-08-28T11:10:10.620Z,71.50
2017-08-28T11:12:37.047Z,66.70
2017-08-28T11:15:03.435Z,70.10
2017-08-28T11:17:29.835Z,67.80
2017-08-28T11:19:56.261Z,70.00
2017-08-28T11:22:22.661Z,67.20
2017-08-28T11:24:49.048Z,64.80
2017-08-28T11:27:15.461Z,66.30
2017-08-28T11:29:41.830Z,69.80
2017-08-28T11:32:08.236Z,64.70
2017-08-28T11:34:34.647Z,67.10
2017-08-28T11:37:01.039Z,67.60
2017-08-28T11:39:27.439Z,68.70
2017-08-28T11:41:53.812Z,68.30
2017-08-28T11:44:20.262Z,68.10
2017-08-28T11:46:46.643Z,62.90
2017-08-28T11:49:13.061Z,64.70
2017-08-28T11:51:39.436Z,65.80
2017-08-28T11:54:05.836Z,67.80
2017-08-28T11:56:32.248Z,65.80
2017-08-28T11:58:59.496Z,70.40
2017-08-28T12:01:25.923Z,68.80
2017-08-28T12:03:52.311Z,69.50
2017-08-28T12:06:18.707Z,65.60
2017-08-28T12:08:45.256Z,68.40
2017-08-28T12:11:11.652Z,65.20
2017-08-28T12:13:38.052Z,67.20
2017-08-28T12:16:04.462Z,69.50
2017-08-28T12:18:30.867Z,69.10
2017-08-28T12:20:57.267Z,71.20
2017-08-28T12:23:23.688Z,65.60
2017-08-28T12:25:50.115Z,67.40
2017-08-28T12:28:16.520Z,66.20
2017-08-28T12:30:42.896Z,65.50
2017-08-28T12:33:09.315Z,62.80
2017-08-28T12:35:35.740Z,62.50
2017-08-28T12:38:02.199Z,65.20
2017-08-28T12:40:28.601Z,64.40
2017-08-28T12:42:55.008Z,65.20
2017-08-28T12:45:21.439Z,67.20
2017-08-28T12:47:47.856Z,68.00
2017-08-28T12:50:14.231Z,66.30
2017-08-28T12:52:40.638Z,65.60
2017-08-28T12:55:07.051Z,66.40
2017-08-28T12:57:33.436Z,67.70
2017-08-28T12:59:59.810Z,72.10
2017-08-28T13:02:26.340Z,73.10
2017-08-28T13:04:52.732Z,73.30
2017-08-28T13:07:19.120Z,76.50
2017-08-28T13:09:45.519Z,79.60
2017-08-28T13:12:11.919Z,80.40
2017-08-28T13:14:38.395Z,83.80
2017-08-28T13:17:04.787Z,80.90
2017-08-28T13:19:31.226Z,85.40
2017-08-28T13:21:57.647Z,88.00
2017-08-28T13:24:24.024Z,89.00
2017-08-28T13:26:50.431Z,91.20
2017-08-28T13:29:16.821Z,90.90
2017-08-28T13:31:43.239Z,91.20
2017-08-28T13:34:09.643Z,91.00
2017-08-28T13:36:36.031Z,91.90
2017-08-28T13:39:02.488Z,91.80
2017-08-28T13:41:28.879Z,92.10
2017-08-28T13:43:55.276Z,92.80
2017-08-28T13:46:21.716Z,92.60
2017-08-28T13:48:48.127Z,92.00
2017-08-28T13:51:14.515Z,92.10
2017-08-28T13:53:40.915Z,93.70
2017-08-28T13:56:07.448Z,92.40
2017-08-28T13:58:33.844Z,93.80
2017-08-28T14:01:00.244Z,95.00
2017-08-28T14:03:26.676Z,94.40
2017-08-28T14:05:53.188Z,94.40
2017-08-28T14:08:19.573Z,93.10
2017-08-28T14:10:45.967Z,94.20
2017-08-28T14:13:12.383Z,94.30
2017-08-28T14:15:38.772Z,94.90
2017-08-28T14:18:05.188Z,94.80
2017-08-28T14:20:31.579Z,94.80
2017-08-28T14:22:57.986Z,95.30
2017-08-28T14:25:24.363Z,94.50
2017-08-28T14:27:50.785Z,94.20
2017-08-28T14:30:17.203Z,95.10
2017-08-28T14:32:43.628Z,93.30
2017-08-28T14:35:10.040Z,94.20
2017-08-28T14:37:36.422Z,94.70
2017-08-28T14:40:02.852Z,94.50
2017-08-28T14:42:29.230Z,94.20
2017-08-28T14:44:55.622Z,94.90
2017-08-28T14:47:22.032Z,94.20
2017-08-28T14:49:48.446Z,93.70
2017-08-28T14:52:14.860Z,94.50
2017-08-28T14:54:41.266Z,94.70
2017-08-28T14:57:07.659Z,93.30
2017-08-28T14:59:34.027Z,93.80
2017-08-28T15:02:00.475Z,93.40
2017-08-28T15:04:26.862Z,92.60
2017-08-28T15:06:53.246Z,93.20
2017-08-28T15:09:19.661Z,94.30
2017-08-28T15:11:46.075Z,95.00
2017-08-28T15:14:12.483Z,94.90
2017-08-28T15:16:38.915Z,95.10
2017-08-28T15:19:05.336Z,95.00
2017-08-28T15:21:31.771Z,94.80
2017-08-28T15:23:58.182Z,95.60
2017-08-28T15:26:24.590Z,95.90
2017-08-28T15:28:50.979Z,95.00
2017-08-28T15:31:17.407Z,95.60
2017-08-28T15:33:43.839Z,94.40
2017-08-28T15:36:10.231Z,94.80
2017-08-28T15:38:36.663Z,94.60
2017-08-28T15:41:03.064Z,94.20
2017-08-28T15:43:29.499Z,93.50
2017-08-28T15:45:55.891Z,93.30
2017-08-28T15:48:22.336Z,93.80
2017-08-28T15:50:48.738Z,95.10
2017-08-28T15:53:15.139Z,95.30
2017-08-28T15:55:41.557Z,95.10
2017-08-28T15:58:07.983Z,94.60
2017-08-28T16:00:34.390Z,94.90
2017-08-28T16:03:00.783Z,95.30
2017-08-28T16:05:27.195Z,94.50
2017-08-28T16:07:53.580Z,93.80
2017-08-28T16:10:19.971Z,94.30
2017-08-28T16:12:46.364Z,92.70
2017-08-28T16:15:12.795Z,93.10
2017-08-28T16:17:39.184Z,92.70
2017-08-28T16:20:05.582Z,93.10
2017-08-28T16:22:31.999Z,93.60
2017-08-28T16:24:58.457Z,92.20
2017-08-28T16:27:24.874Z,93.70
2017-08-28T16:29:51.307Z,93.50
2017-08-28T16:32:17.749Z,94.10
2017-08-28T16:34:44.173Z,94.30
2017-08-28T16:37:10.572Z,95.20
2017-08-28T16:39:36.964Z,95.10
2017-08-28T16:42:03.383Z,95.00
2017-08-28T16:44:29.772Z,94.60
2017-08-28T16:46:56.232Z,95.00
2017-08-28T16:49:22.638Z,95.00
2017-08-28T16:51:49.027Z,95.20
2017-08-28T16:54:15.536Z,95.70
2017-08-28T16:56:42.006Z,96.10
2017-08-28T16:59:08.426Z,95.40
2017-08-28T17:01:34.834Z,95.60
2017-08-28T17:04:01.259Z,95.80
2017-08-28T17:06:27.631Z,95.60
2017-08-28T17:08:54.052Z,95.40
2017-08-28T17:11:20.465Z,95.80
2017-08-28T17:13:46.879Z,95.80
2017-08-28T17:16:13.278Z,95.80
2017-08-28T17:18:39.677Z,95.50
2017-08-28T17:21:06.095Z,95.60
2017-08-28T17:23:38.615Z,96.00
2017-08-28T17:26:05.022Z,95.90
2017-08-28T17:28:31.471Z,95.70
2017-08-28T17:30:57.846Z,96.50
2017-08-28T17:33:24.319Z,96.90
2017-08-28T17:35:50.740Z,96.70
2017-08-28T17:38:17.136Z,96.30
2017-08-28T17:40:43.543Z,96.40
2017-08-28T17:43:10.055Z,96.10
2017-08-28T17:45:36.475Z,95.90
2017-08-28T17:48:02.939Z,95.80
2017-08-28T17:50:29.331Z,95.90
2017-08-28T17:52:55.731Z,95.90
2017-08-28T17:55:22.156Z,96.40
2017-08-28T17:57:48.573Z,96.70
2017-08-28T18:00:15.771Z,96.60
2017-08-28T18:02:42.245Z,96.50
2017-08-28T18:05:08.656Z,96.80
2017-08-28T18:07:35.052Z,97.20
2017-08-28T18:10:01.510Z,97.10
2017-08-28T18:12:27.923Z,96.90
2017-08-28T18:14:54.385Z,96.90
2017-08-28T18:17:20.775Z,96.30
2017-08-28T18:19:47.181Z,96.40
2017-08-28T18:22:13.670Z,96.40
2017-08-28T18:24:40.090Z,96.50
2017-08-28T18:27:06.524Z,96.80
2017-08-28T18:29:32.904Z,96.70
2017-08-28T18:31:59.317Z,96.80
2017-08-28T18:34:25.861Z,96.90
2017-08-28T18:36:52.280Z,96.60
2017-08-28T18:39:18.676Z,96.80
2017-08-28T18:41:45.062Z,96.90
2017-08-28T18:44:11.574Z,96.60
2017-08-28T18:46:37.947Z,96.60
2017-08-28T18:49:04.392Z,96.70
2017-08-28T18:51:30.818Z,96.60
2017-08-28T18:53:57.331Z,96.70
2017-08-28T18:56:23.732Z,96.70
2017-08-28T18:58:50.123Z,96.70
2017-08-28T19:01:16.526Z,96.70
2017-08-28T19:03:43.071Z,96.70
2017-08-28T19:06:09.477Z,96.40
2017-08-28T19:08:35.892Z,96.50
2017-08-28T19:11:03.047Z,96.90
2017-08-28T19:13:29.494Z,96.90
2017-08-28T19:15:55.948Z,96.90
2017-08-28T19:18:22.399Z,96.80
2017-08-28T19:20:48.791Z,96.70
2017-08-28T19:23:15.322Z,96.60
2017-08-28T19:25:41.757Z,96.70
2017-08-28T19:28:08.530Z,96.70
2017-08-28T19:30:35.067Z,96.80
2017-08-28T19:33:01.542Z,96.90
2017-08-28T19:35:27.956Z,96.90
2017-08-28T19:37:54.363Z,96.90
2017-08-28T19:40:20.764Z,96.80
2017-08-28T19:42:47.219Z,96.90
2017-08-28T19:45:13.596Z,96.90
2017-08-28T19:47:40.023Z,96.80
2017-08-28T19:50:06.723Z,96.70
2017-08-28T19:52:33.459Z,96.60
2017-08-28T19:54:59.860Z,96.40
2017-08-28T19:57:26.243Z,96.50
2017-08-28T19:59:52.660Z,96.60
2017-08-28T20:02:25.091Z,96.50
2017-08-28T20:04:51.604Z,96.50
2017-08-28T20:07:17.999Z,96.50
2017-08-28T20:09:44.387Z,96.60
2017-08-28T20:12:10.856Z,96.40
2017-08-28T20:14:37.254Z,96.70
2017-08-28T20:17:03.676Z,96.60
2017-08-28T20:19:30.055Z,96.60
2017-08-28T20:21:56.427Z,96.40
2017-08-28T20:24:22.901Z,96.40
2017-08-28T20:26:49.302Z,96.40
2017-08-28T20:29:15.711Z,96.20
2017-08-28T20:31:42.100Z,96.30
2017-08-28T20:34:08.498Z,96.30
2017-08-28T20:36:34.904Z,96.40
2017-08-28T20:39:01.379Z,96.30
2017-08-28T20:41:27.834Z,96.30
2017-08-28T20:43:54.315Z,96.30
2017-08-28T20:46:20.723Z,96.20
2017-08-28T20:48:47.127Z,96.30
2017-08-28T20:51:13.519Z,96.10
2017-08-28T20:53:40.012Z,96.30
2017-08-28T20:56:06.380Z,96.30
2017-08-28T20:58:32.783Z,96.40
2017-08-28T21:00:59.159Z,96.30
2017-08-28T21:03:25.601Z,96.30
2017-08-28T21:05:52.029Z,96.30
2017-08-28T21:08:18.460Z,96.30
2017-08-28T21:10:51.863Z,96.40
2017-08-28T21:13:18.292Z,96.40
2017-08-28T21:15:44.680Z,96.20
2017-08-28T21:18:11.110Z,96.40
2017-08-28T21:20:37.488Z,96.30
2017-08-28T21:23:03.903Z,96.50
2017-08-28T21:25:30.295Z,96.70
2017-08-28T21:27:56.691Z,96.60
2017-08-28T21:30:23.092Z,96.80
2017-08-28T21:32:49.555Z,96.90
2017-08-28T21:35:15.925Z,97.10
2017-08-28T21:37:42.319Z,96.90
2017-08-28T21:40:08.688Z,96.80
2017-08-28T21:42:35.171Z,96.90
2017-08-28T21:45:01.583Z,97.00
2017-08-28T21:47:27.972Z,96.80
2017-08-28T21:49:54.347Z,96.80
2017-08-28T21:52:20.843Z,96.60
2017-08-28T21:54:47.368Z,96.70
2017-08-28T21:57:13.775Z,96.50
2017-08-28T21:59:40.159Z,96.40
2017-08-28T22:02:06.552Z,96.40
2017-08-28T22:04:32.910Z,96.40
2017-08-28T22:06:59.318Z,96.40
2017-08-28T22:09:25.704Z,96.40
2017-08-28T22:11:52.075Z,96.30
2017-08-28T22:14:18.535Z,96.30
2017-08-28T22:16:44.945Z,96.30
2017-08-28T22:19:11.343Z,96.30
2017-08-28T22:21:37.727Z,96.30
2017-08-28T22:24:04.167Z,96.50
2017-08-28T22:26:30.597Z,96.20
2017-08-28T22:28:56.972Z,96.20
2017-08-28T22:31:23.346Z,96.10
2017-08-28T22:33:49.793Z,96.40
2017-08-28T22:36:16.202Z,96.30
2017-08-28T22:38:42.604Z,96.00
2017-08-28T22:41:08.975Z,96.00
2017-08-28T22:43:35.611Z,95.90
2017-08-28T22:46:01.971Z,95.70
2017-08-28T22:48:28.364Z,95.80
2017-08-28T22:50:54.771Z,96.10
2017-08-28T22:53:21.234Z,96.10
2017-08-28T22:55:47.629Z,96.10
2017-08-28T22:58:14.023Z,96.20
2017-08-28T23:00:40.411Z,96.20
2017-08-28T23:03:06.873Z,96.20
2017-08-28T23:05:33.259Z,96.20
2017-08-28T23:07:59.676Z,96.20
2017-08-28T23:10:32.919Z,96.10
2017-08-28T23:12:59.377Z,96.40
2017-08-28T23:15:25.779Z,96.40
2017-08-28T23:17:52.171Z,96.40
2017-08-28T23:20:18.567Z,96.20
2017-08-28T23:22:44.999Z,96.20
2017-08-28T23:25:11.379Z,96.00
2017-08-28T23:27:37.814Z,96.20
2017-08-28T23:30:04.227Z,96.20
2017-08-28T23:32:30.740Z,96.20
2017-08-28T23:34:57.122Z,96.40
2017-08-28T23:37:23.506Z,96.10
2017-08-28T23:39:49.903Z,96.20
2017-08-28T23:42:16.336Z,96.20
2017-08-28T23:44:42.755Z,96.00
2017-08-28T23:47:09.141Z,95.90
2017-08-28T23:49:35.515Z,95.90
2017-08-28T23:52:01.963Z,95.90
2017-08-28T23:54:28.409Z,95.90
2017-08-28T23:56:54.802Z,96.10
2017-08-28T23:59:21.195Z,96.20
